Time;durP1;ratioP1;P1;durP2;ratioP2;P2;SDS_P1;SDS_P2;PMS_P1;PMS_P2;Temp;Humidity;BMP_temperature;BMP_pressure;BME280_temperature;BME280_humidity;BME280_pressure;Samples;Min_cycle;Max_cycle;Signal;HPM_P1;HPM_P2
2023/05/27 00:01:45;;;;;;;2.40;1.13;;;12.40;99.90;;;;;;5049806;28;20439;-77
2023/05/27 00:04:12;;;;;;;1.50;0.90;;;12.40;99.90;;;;;;5049708;28;20441;-78
2023/05/27 00:06:39;;;;;;;2.08;1.65;;;12.40;99.90;;;;;;5045793;28;20433;-77
2023/05/27 00:09:06;;;;;;;1.70;1.20;;;12.40;99.90;;;;;;5048004;28;20431;-77
2023/05/27 00:11:57;;;;;;;0.98;0.88;;;12.30;99.90;;;;;;5055395;28;20518;-78
2023/05/27 00:14:29;;;;;;;1.65;0.60;;;12.30;99.90;;;;;;5048539;28;20934;-77
2023/05/27 00:16:56;;;;;;;0.50;0.50;;;12.20;99.90;;;;;;5046131;28;20461;-77
2023/05/27 00:19:24;;;;;;;0.50;0.50;;;12.20;99.90;;;;;;5048591;28;20438;-78
2023/05/27 00:21:53;;;;;;;3.50;1.00;;;12.20;99.90;;;;;;5045163;28;20429;-77
2023/05/27 00:24:20;;;;;;;1.10;0.60;;;12.20;99.90;;;;;;5049572;28;20449;-77
2023/05/27 00:26:49;;;;;;;0.30;0.30;;;12.20;99.90;;;;;;5048179;28;20454;-77
2023/05/27 00:29:17;;;;;;;3.45;0.57;;;12.10;99.90;;;;;;5050366;28;20427;-77
2023/05/27 00:31:47;;;;;;;1.00;0.70;;;12.00;99.90;;;;;;5045213;28;21790;-77
2023/05/27 00:34:14;;;;;;;8.30;0.63;;;11.90;99.90;;;;;;5050577;28;20905;-78
2023/05/27 00:36:45;;;;;;;3.03;0.97;;;11.90;99.90;;;;;;5048724;28;20438;-77
2023/05/27 00:39:12;;;;;;;3.30;0.90;;;11.90;99.90;;;;;;5047110;28;20427;-77
2023/05/27 00:41:47;;;;;;;0.32;0.32;;;11.90;99.90;;;;;;5048127;28;20943;-77
2023/05/27 00:44:17;;;;;;;1.40;0.60;;;11.80;99.90;;;;;;5044893;28;20451;-77
2023/05/27 00:46:48;;;;;;;1.77;0.90;;;11.80;99.90;;;;;;5044288;28;20882;-77
2023/05/27 00:49:18;;;;;;;1.00;0.82;;;11.80;99.90;;;;;;5045519;28;20437;-77
2023/05/27 00:51:51;;;;;;;3.13;0.80;;;11.80;99.90;;;;;;5042084;28;20444;-77
2023/05/27 00:54:18;;;;;;;1.25;0.68;;;11.80;99.90;;;;;;5046243;28;20532;-77
2023/05/27 00:56:45;;;;;;;1.00;0.70;;;11.80;99.90;;;;;;5042958;28;20580;-77
2023/05/27 00:59:12;;;;;;;3.10;0.65;;;11.80;99.90;;;;;;5045241;28;20490;-77
2023/05/27 01:01:43;;;;;;;0.85;0.60;;;11.70;99.90;;;;;;5042566;28;20473;-77
2023/05/27 01:04:12;;;;;;;1.40;0.98;;;11.70;99.90;;;;;;5042347;28;20432;-77
2023/05/27 01:07:07;;;;;;;5.95;0.65;;;11.70;99.90;;;;;;5044350;28;22568;-77
2023/05/27 01:09:53;;;;;;;3.30;0.68;;;11.60;99.90;;;;;;5042842;28;20433;-75
2023/05/27 01:12:37;;;;;;;0.60;0.60;;;11.60;99.90;;;;;;5050886;28;20433;-77
2023/05/27 01:15:06;;;;;;;0.38;0.38;;;11.60;99.90;;;;;;5043578;28;20439;-78
2023/05/27 01:17:37;;;;;;;2.20;0.90;;;11.60;99.90;;;;;;5044522;28;20629;-76
2023/05/27 01:20:06;;;;;;;0.73;0.65;;;11.60;99.90;;;;;;5043868;28;20436;-76
2023/05/27 01:22:33;;;;;;;0.90;0.90;;;11.60;99.90;;;;;;5044555;28;22104;-75
2023/05/27 01:25:00;;;;;;;0.43;0.43;;;11.50;99.90;;;;;;5039646;28;21067;-77
2023/05/27 01:27:30;;;;;;;1.58;0.90;;;11.50;99.90;;;;;;5042954;28;20515;-78
2023/05/27 01:29:57;;;;;;;2.55;0.43;;;11.40;99.90;;;;;;5043498;28;20779;-77
2023/05/27 01:32:41;;;;;;;0.70;0.70;;;11.40;99.90;;;;;;5048493;28;20440;-77
2023/05/27 01:35:17;;;;;;;1.23;1.20;;;11.30;99.90;;;;;;5042791;28;20452;-77
2023/05/27 01:37:45;;;;;;;2.80;0.70;;;11.20;99.90;;;;;;5065612;28;21025;-77
2023/05/27 01:40:14;;;;;;;0.63;0.63;;;11.20;99.90;;;;;;5060905;28;20464;-77
2023/05/27 01:42:44;;;;;;;1.47;0.87;;;11.10;99.90;;;;;;5046558;28;20564;-77
2023/05/27 01:45:12;;;;;;;3.20;0.68;;;11.10;99.90;;;;;;5047554;28;20477;-77
2023/05/27 01:47:38;;;;;;;1.27;0.70;;;11.00;99.90;;;;;;5046051;28;20961;-77
2023/05/27 01:50:06;;;;;;;4.10;0.90;;;11.00;99.90;;;;;;5045747;28;20494;-76
2023/05/27 01:52:33;;;;;;;5.40;1.15;;;11.00;99.90;;;;;;5044100;28;20542;-76
2023/05/27 01:55:00;;;;;;;0.80;0.80;;;10.90;99.90;;;;;;5050426;28;20429;-76
2023/05/27 01:57:27;;;;;;;1.63;0.47;;;10.90;99.90;;;;;;5048715;28;20518;-76
2023/05/27 01:59:53;;;;;;;0.60;0.60;;;10.90;99.90;;;;;;5045660;28;20526;-77
2023/05/27 02:02:20;;;;;;;1.75;0.30;;;10.90;99.90;;;;;;5043630;28;20429;-77
2023/05/27 02:04:47;;;;;;;1.20;0.98;;;10.90;99.90;;;;;;5044167;28;20439;-76
2023/05/27 02:07:16;;;;;;;1.10;0.80;;;10.80;99.90;;;;;;5053102;28;20557;-77
2023/05/27 02:09:44;;;;;;;4.50;0.98;;;10.80;99.90;;;;;;5044466;28;20439;-76
2023/05/27 02:12:11;;;;;;;1.48;0.98;;;10.70;99.90;;;;;;5052146;28;20428;-76
2023/05/27 02:14:38;;;;;;;0.60;0.60;;;10.70;99.90;;;;;;5050491;28;21343;-78
2023/05/27 02:17:06;;;;;;;0.30;0.30;;;10.60;99.90;;;;;;5043763;28;20439;-77
2023/05/27 02:19:33;;;;;;;0.70;0.70;;;10.60;99.90;;;;;;5048105;28;20437;-77
2023/05/27 02:22:00;;;;;;;0.40;0.40;;;10.50;99.90;;;;;;5045616;28;20970;-77
2023/05/27 02:24:27;;;;;;;1.60;0.65;;;10.50;99.90;;;;;;5042816;28;21380;-77
2023/05/27 02:26:53;;;;;;;2.45;0.63;;;10.50;99.90;;;;;;5044036;28;20433;-77
2023/05/27 02:29:20;;;;;;;1.88;0.80;;;10.40;99.90;;;;;;5045965;28;22370;-77
2023/05/27 02:31:49;;;;;;;0.60;0.60;;;10.30;99.90;;;;;;5040706;28;20423;-76
2023/05/27 02:34:16;;;;;;;0.70;0.70;;;10.20;99.90;;;;;;5045997;28;20428;-77
2023/05/27 02:36:43;;;;;;;3.30;1.02;;;10.20;99.90;;;;;;5046938;28;20839;-76
2023/05/27 02:39:10;;;;;;;0.35;0.35;;;10.10;99.90;;;;;;5044448;28;20447;-76
2023/05/27 02:41:37;;;;;;;2.50;1.00;;;10.00;99.90;;;;;;5046006;28;20466;-77
2023/05/27 02:44:05;;;;;;;0.40;0.40;;;10.00;99.90;;;;;;5045435;28;20477;-77
2023/05/27 02:46:32;;;;;;;0.80;0.80;;;9.90;99.90;;;;;;5044111;28;20550;-77
2023/05/27 02:49:05;;;;;;;0.57;0.57;;;9.90;99.90;;;;;;5043536;28;20438;-77
2023/05/27 02:51:31;;;;;;;3.80;1.10;;;9.90;99.90;;;;;;5046023;28;20436;-76
2023/05/27 02:53:58;;;;;;;1.70;0.70;;;9.90;99.90;;;;;;5046699;28;20434;-76
2023/05/27 02:56:25;;;;;;;1.80;0.80;;;9.80;99.90;;;;;;5043596;28;20934;-77
2023/05/27 02:58:52;;;;;;;4.75;1.38;;;9.80;99.90;;;;;;5041110;28;20435;-77
2023/05/27 03:01:19;;;;;;;0.60;0.60;;;9.70;99.90;;;;;;5048794;28;20440;-77
2023/05/27 03:03:46;;;;;;;1.60;0.68;;;9.70;99.90;;;;;;5044003;28;20474;-76
2023/05/27 03:06:13;;;;;;;0.77;0.77;;;9.80;99.90;;;;;;5044412;28;20436;-76
2023/05/27 03:08:43;;;;;;;2.60;0.70;;;9.70;99.90;;;;;;5045783;28;20516;-77
2023/05/27 03:11:12;;;;;;;0.38;0.38;;;9.60;99.90;;;;;;5047535;28;20433;-77
2023/05/27 03:13:39;;;;;;;0.60;0.60;;;9.60;99.90;;;;;;5045392;28;20899;-77
2023/05/27 03:16:06;;;;;;;0.43;0.43;;;9.60;99.90;;;;;;5046011;28;20531;-77
2023/05/27 03:18:33;;;;;;;0.98;0.57;;;9.60;1.00;;;;;;5045363;28;20774;-76
2023/05/27 03:21:01;;;;;;;0.73;0.73;;;9.60;1.00;;;;;;5042997;28;21020;-77
2023/05/27 03:23:27;;;;;;;1.33;1.08;;;9.50;1.00;;;;;;5043679;28;20429;-76
2023/05/27 03:25:57;;;;;;;0.40;0.40;;;9.50;1.00;;;;;;5050304;28;20527;-77
2023/05/27 03:28:24;;;;;;;2.40;0.70;;;9.50;1.00;;;;;;5042987;28;20510;-77
2023/05/27 03:30:55;;;;;;;0.60;0.50;;;9.40;1.00;;;;;;5046939;28;20437;-77
2023/05/27 03:33:23;;;;;;;5.90;1.00;;;9.40;1.00;;;;;;5047790;28;20489;-76
2023/05/27 03:35:50;;;;;;;0.28;0.28;;;9.40;1.00;;;;;;5041244;28;20482;-77
2023/05/27 03:38:18;;;;;;;0.95;0.70;;;9.40;1.00;;;;;;5047952;28;20435;-77
2023/05/27 03:40:45;;;;;;;2.00;0.90;;;9.40;1.00;;;;;;5045186;28;20444;-76
2023/05/27 03:43:12;;;;;;;1.80;0.73;;;9.30;1.00;;;;;;5043133;28;20475;-76
2023/05/27 03:45:39;;;;;;;4.10;0.85;;;9.30;1.00;;;;;;5053100;28;20740;-77
2023/05/27 03:48:06;;;;;;;3.40;0.70;;;9.30;1.00;;;;;;5044868;28;20439;-77
2023/05/27 03:50:34;;;;;;;0.45;0.45;;;9.40;1.00;;;;;;5043845;28;21515;-77
2023/05/27 03:53:01;;;;;;;4.40;0.80;;;9.50;1.00;;;;;;5045666;28;20429;-77
2023/05/27 03:55:28;;;;;;;2.80;0.80;;;9.50;1.00;;;;;;5041054;28;20442;-77
2023/05/27 03:57:57;;;;;;;0.20;0.20;;;9.50;1.00;;;;;;5044689;28;20537;-77
2023/05/27 04:00:24;;;;;;;0.60;0.60;;;9.50;1.00;;;;;;5045779;28;20953;-77
2023/05/27 04:02:51;;;;;;;0.52;0.52;;;9.60;1.00;;;;;;5042316;28;20451;-78
2023/05/27 04:05:23;;;;;;;3.20;1.00;;;9.60;1.00;;;;;;5043472;28;20442;-77
2023/05/27 04:07:51;;;;;;;0.82;0.82;;;9.60;1.00;;;;;;5042994;28;20434;-77
2023/05/27 04:10:20;;;;;;;1.70;0.85;;;9.60;1.00;;;;;;5042986;28;20984;-78
2023/05/27 04:12:50;;;;;;;1.67;0.98;;;9.70;1.00;;;;;;5048091;28;20436;-77
2023/05/27 04:15:17;;;;;;;3.20;0.93;;;9.80;1.00;;;;;;5047153;28;20774;-76
2023/05/27 04:17:43;;;;;;;0.70;0.70;;;9.90;1.00;;;;;;5044821;28;20518;-77
2023/05/27 04:20:13;;;;;;;0.40;0.40;;;9.90;1.00;;;;;;5046968;28;20437;-77
2023/05/27 04:22:44;;;;;;;0.70;0.70;;;10.00;1.00;;;;;;5044401;28;20805;-77
2023/05/27 04:25:14;;;;;;;1.00;0.90;;;10.10;1.00;;;;;;5046714;28;20435;-77
2023/05/27 04:27:41;;;;;;;1.00;0.80;;;10.20;1.00;;;;;;5043374;28;20427;-78
2023/05/27 04:30:08;;;;;;;1.70;0.40;;;10.20;1.00;;;;;;5043116;28;20445;-78
2023/05/27 04:32:37;;;;;;;1.20;1.00;;;10.30;1.00;;;;;;5039815;28;20432;-78
2023/05/27 04:35:08;;;;;;;17.88;0.95;;;10.40;1.00;;;;;;5041809;28;20506;-78
2023/05/27 04:37:36;;;;;;;0.20;0.20;;;10.40;99.90;;;;;;5041570;28;21614;-76
2023/05/27 04:40:07;;;;;;;3.30;0.40;;;10.60;99.90;;;;;;5041447;28;20432;-75
2023/05/27 04:42:38;;;;;;;0.60;0.60;;;11.00;99.90;;;;;;5045312;28;20436;-76
2023/05/27 04:45:06;;;;;;;0.57;0.57;;;11.40;99.90;;;;;;5048806;28;20443;-76
2023/05/27 04:47:33;;;;;;;0.68;0.68;;;11.70;99.90;;;;;;5049985;28;20435;-76
2023/05/27 04:50:03;;;;;;;6.80;0.47;;;12.10;99.90;;;;;;5043431;28;20817;-78
2023/05/27 04:52:36;;;;;;;0.67;0.53;;;12.40;99.90;;;;;;5042640;28;20558;-78
2023/05/27 04:55:10;;;;;;;0.60;0.60;;;12.70;99.90;;;;;;5038633;28;20873;-78
2023/05/27 04:57:40;;;;;;;16.73;1.30;;;12.80;99.90;;;;;;5040900;28;20534;-78
2023/05/27 05:02:39;;;;;;;1.00;0.60;;;13.10;99.90;;;;;;5044466;28;20434;-76
2023/05/27 05:05:10;;;;;;;6.20;0.98;;;13.40;99.90;;;;;;5041471;28;20551;-75
2023/05/27 05:07:37;;;;;;;0.73;0.73;;;13.60;99.90;;;;;;5048980;28;20428;-76
2023/05/27 05:10:06;;;;;;;0.30;0.30;;;13.70;99.90;;;;;;5044896;28;20442;-76
2023/05/27 05:12:33;;;;;;;0.77;0.77;;;13.80;99.90;;;;;;5053607;28;20433;-78
2023/05/27 05:15:01;;;;;;;3.80;1.05;;;14.00;99.90;;;;;;5048403;28;20439;-75
2023/05/27 05:17:27;;;;;;;0.90;0.70;;;14.10;99.90;;;;;;5045931;28;20528;-76
2023/05/27 05:19:54;;;;;;;0.80;0.80;;;14.30;99.90;;;;;;5045709;28;20682;-76
2023/05/27 05:22:26;;;;;;;0.63;0.63;;;14.40;99.90;;;;;;5048009;28;22323;-76
2023/05/27 05:24:53;;;;;;;0.22;0.22;;;14.50;99.90;;;;;;5046250;28;20975;-76
2023/05/27 05:27:20;;;;;;;4.20;0.80;;;14.80;99.90;;;;;;5048648;28;20526;-76
2023/05/27 05:30:02;;;;;;;2.80;0.27;;;15.10;99.90;;;;;;5051808;28;20413;-76
2023/05/27 05:32:32;;;;;;;1.90;0.50;;;15.20;99.90;;;;;;5049730;28;21026;-76
2023/05/27 05:34:58;;;;;;;5.75;1.30;;;15.50;99.90;;;;;;5047246;28;20483;-76
2023/05/27 05:37:25;;;;;;;0.70;0.50;;;15.70;99.90;;;;;;5046335;28;20827;-76
2023/05/27 05:39:55;;;;;;;1.20;1.10;;;15.90;99.90;;;;;;5044442;28;20433;-76
2023/05/27 05:42:24;;;;;;;0.60;0.60;;;16.20;99.90;;;;;;5050009;28;20531;-77
2023/05/27 05:44:52;;;;;;;4.97;1.23;;;16.30;99.90;;;;;;5047383;28;20516;-75
2023/05/27 05:47:19;;;;;;;0.77;0.77;;;16.40;99.90;;;;;;5048101;28;20792;-75
2023/05/27 05:49:46;;;;;;;0.70;0.70;;;16.40;99.90;;;;;;5049064;28;20475;-75
2023/05/27 05:52:13;;;;;;;2.50;0.45;;;16.30;99.90;;;;;;5045849;28;20436;-75
2023/05/27 05:54:39;;;;;;;0.50;0.50;;;16.30;99.90;;;;;;5049235;28;20507;-75
2023/05/27 05:57:06;;;;;;;3.20;0.47;;;16.60;99.90;;;;;;5044855;28;20511;-74
2023/05/27 05:59:33;;;;;;;0.60;0.60;;;16.40;99.90;;;;;;5048896;28;20914;-75
2023/05/27 06:02:00;;;;;;;1.73;0.90;;;16.40;99.90;;;;;;5042488;28;21016;-77
2023/05/27 06:04:27;;;;;;;3.95;0.70;;;16.40;99.90;;;;;;5045485;28;20448;-76
2023/05/27 06:06:53;;;;;;;0.90;0.90;;;16.70;99.90;;;;;;5066132;28;20437;-75
2023/05/27 06:09:24;;;;;;;3.10;1.10;;;17.20;99.90;;;;;;5046108;28;20424;-76
2023/05/27 06:11:52;;;;;;;2.50;0.85;;;17.80;99.90;;;;;;5049085;28;20433;-76
2023/05/27 06:14:20;;;;;;;1.25;1.00;;;17.90;99.90;;;;;;5044075;28;20522;-76
2023/05/27 06:16:46;;;;;;;1.60;1.02;;;17.70;99.90;;;;;;5043278;28;20468;-75
2023/05/27 06:19:13;;;;;;;0.53;0.50;;;17.90;99.90;;;;;;5054465;28;20431;-76
2023/05/27 06:21:41;;;;;;;0.90;0.70;;;18.10;99.90;;;;;;5051646;28;20512;-76
2023/05/27 06:24:08;;;;;;;2.80;0.70;;;18.40;99.90;;;;;;5051084;28;20433;-77
2023/05/27 06:26:35;;;;;;;2.10;1.25;;;18.60;99.90;;;;;;5044880;28;20516;-76
2023/05/27 06:29:01;;;;;;;1.08;0.77;;;18.60;99.90;;;;;;5045162;28;20627;-76
2023/05/27 06:31:28;;;;;;;3.50;0.80;;;18.80;99.90;;;;;;5045973;28;20510;-76
2023/05/27 06:33:55;;;;;;;1.20;1.10;;;18.90;99.90;;;;;;5050305;28;20424;-76
2023/05/27 06:36:24;;;;;;;4.60;0.98;;;19.10;99.90;;;;;;5061647;28;20439;-76
2023/05/27 06:38:51;;;;;;;5.20;1.33;;;19.30;99.90;;;;;;5062682;28;20436;-76
2023/05/27 06:41:20;;;;;;;1.73;1.35;;;19.00;99.90;;;;;;5051948;28;20535;-76
2023/05/27 06:43:47;;;;;;;1.58;0.60;;;18.60;99.90;;;;;;5050082;28;20435;-76
2023/05/27 06:46:13;;;;;;;0.97;0.97;;;18.80;99.90;;;;;;5062917;28;20485;-76
2023/05/27 06:48:40;;;;;;;0.93;0.60;;;18.70;99.90;;;;;;5061852;28;20431;-76
2023/05/27 06:51:08;;;;;;;0.40;0.40;;;18.70;99.90;;;;;;5052153;28;20436;-76
2023/05/27 06:53:34;;;;;;;2.53;0.80;;;18.90;99.90;;;;;;5051447;28;20847;-76
2023/05/27 06:56:04;;;;;;;2.20;1.38;;;19.10;99.90;;;;;;5049514;28;20433;-77
2023/05/27 06:58:31;;;;;;;0.63;0.63;;;19.50;99.90;;;;;;5046504;28;20430;-76
2023/05/27 07:01:00;;;;;;;0.32;0.32;;;19.50;99.90;;;;;;5049725;28;20446;-76
2023/05/27 07:03:26;;;;;;;1.30;0.80;;;19.60;99.90;;;;;;5050119;28;20431;-76
2023/05/27 07:05:53;;;;;;;1.70;0.70;;;19.40;99.90;;;;;;5052274;28;20546;-77
2023/05/27 07:08:21;;;;;;;1.10;0.80;;;19.70;99.90;;;;;;5053778;28;20420;-76
2023/05/27 07:10:47;;;;;;;1.63;0.98;;;19.80;99.90;;;;;;5053939;28;20446;-76
2023/05/27 07:13:15;;;;;;;1.20;1.05;;;20.20;99.90;;;;;;5046242;28;20915;-77
2023/05/27 07:15:42;;;;;;;2.40;1.25;;;20.30;99.90;;;;;;5051887;28;20463;-76
2023/05/27 07:18:09;;;;;;;0.73;0.70;;;19.50;99.90;;;;;;5042494;28;20448;-76
2023/05/27 07:20:36;;;;;;;0.55;0.55;;;19.40;99.90;;;;;;5051365;28;20423;-76
2023/05/27 07:23:03;;;;;;;7.45;0.43;;;19.70;99.90;;;;;;5060278;28;20482;-76
2023/05/27 07:25:29;;;;;;;0.57;0.57;;;19.50;99.90;;;;;;5048784;28;20441;-77
2023/05/27 07:27:56;;;;;;;1.27;0.45;;;19.20;99.90;;;;;;5052293;28;20424;-76
2023/05/27 07:30:23;;;;;;;0.80;0.60;;;19.60;99.90;;;;;;5048413;28;20431;-76
2023/05/27 07:32:50;;;;;;;0.22;0.22;;;20.00;99.90;;;;;;5052051;28;20514;-76
2023/05/27 07:35:17;;;;;;;0.40;0.40;;;20.20;99.90;;;;;;5041802;28;20518;-76
2023/05/27 07:37:45;;;;;;;0.73;0.68;;;19.90;99.90;;;;;;5045888;28;20469;-76
2023/05/27 07:40:12;;;;;;;2.83;0.70;;;19.70;99.90;;;;;;5047575;28;21166;-76
2023/05/27 07:42:39;;;;;;;0.70;0.70;;;19.40;99.90;;;;;;5056946;28;20864;-76
2023/05/27 07:45:06;;;;;;;1.33;1.23;;;19.80;99.90;;;;;;5057071;28;20497;-76
2023/05/27 07:47:34;;;;;;;3.93;0.83;;;19.90;99.90;;;;;;5047931;28;20467;-77
2023/05/27 07:50:01;;;;;;;0.77;0.77;;;20.20;99.90;;;;;;5045136;28;20433;-76
2023/05/27 07:52:29;;;;;;;1.58;0.63;;;20.60;99.90;;;;;;5043279;28;20441;-77
2023/05/27 07:54:57;;;;;;;3.27;0.70;;;20.70;99.90;;;;;;5043499;28;20428;-77
2023/05/27 07:57:24;;;;;;;2.63;0.88;;;21.10;99.90;;;;;;5064081;28;20453;-77
2023/05/27 07:59:51;;;;;;;4.70;0.77;;;21.40;99.90;;;;;;5043371;28;20802;-76
2023/05/27 08:02:18;;;;;;;0.50;0.50;;;21.60;99.90;;;;;;5040708;28;20495;-77
2023/05/27 08:04:44;;;;;;;0.75;0.50;;;21.50;99.90;;;;;;5046900;28;20558;-76
2023/05/27 08:07:21;;;;;;;1.05;1.02;;;22.00;99.90;;;;;;5042481;28;21581;-77
2023/05/27 08:09:48;;;;;;;2.30;0.70;;;21.90;99.90;;;;;;5047485;28;20431;-78
2023/05/27 08:12:14;;;;;;;2.90;1.02;;;21.90;99.90;;;;;;5050601;28;20437;-76
2023/05/27 08:14:45;;;;;;;3.17;1.40;;;21.80;99.90;;;;;;5042751;28;20433;-76
2023/05/27 08:17:12;;;;;;;3.35;0.82;;;21.20;99.90;;;;;;5040857;28;20539;-77
2023/05/27 08:19:38;;;;;;;6.93;1.10;;;20.80;99.90;;;;;;5043267;28;20453;-77
2023/05/27 08:22:08;;;;;;;0.75;0.63;;;20.60;99.90;;;;;;5041833;28;20887;-76
2023/05/27 08:24:36;;;;;;;0.95;0.75;;;20.80;99.90;;;;;;5039982;28;20525;-76
2023/05/27 08:27:05;;;;;;;1.00;0.52;;;21.40;99.90;;;;;;5041044;28;20546;-77
2023/05/27 08:29:33;;;;;;;0.60;0.60;;;21.70;99.90;;;;;;5042524;28;20786;-77
2023/05/27 08:32:00;;;;;;;2.55;0.77;;;22.00;99.90;;;;;;5040883;28;20425;-77
2023/05/27 08:34:27;;;;;;;1.40;0.90;;;21.00;99.90;;;;;;5048887;28;20429;-76
2023/05/27 08:36:57;;;;;;;3.80;1.08;;;21.70;99.90;;;;;;5046754;28;22144;-77
2023/05/27 08:39:23;;;;;;;5.22;0.80;;;21.50;99.90;;;;;;5040850;28;21295;-77
2023/05/27 08:41:52;;;;;;;3.37;1.00;;;21.70;99.90;;;;;;5045301;28;20944;-77
2023/05/27 08:44:21;;;;;;;1.48;0.85;;;22.00;99.90;;;;;;5061701;28;20448;-76
2023/05/27 08:46:49;;;;;;;1.10;0.65;;;21.70;99.90;;;;;;5046158;28;21333;-77
2023/05/27 08:49:17;;;;;;;3.20;0.40;;;22.00;99.90;;;;;;5046537;28;20442;-77
2023/05/27 08:51:45;;;;;;;1.10;1.00;;;22.20;99.90;;;;;;5041557;28;20810;-77
2023/05/27 08:54:12;;;;;;;2.10;1.00;;;22.50;99.90;;;;;;5038671;28;20486;-77
2023/05/27 08:56:40;;;;;;;2.83;1.10;;;22.90;99.90;;;;;;5045082;28;20968;-76
2023/05/27 08:59:08;;;;;;;1.70;0.70;;;23.00;99.90;;;;;;5042854;28;20489;-77
2023/05/27 09:01:35;;;;;;;2.57;1.03;;;23.10;99.90;;;;;;5041308;28;20547;-77
2023/05/27 09:04:02;;;;;;;0.75;0.57;;;21.90;99.90;;;;;;5053656;28;20542;-76
2023/05/27 09:06:29;;;;;;;1.60;0.82;;;22.10;99.90;;;;;;5041463;28;20437;-77
2023/05/27 09:08:56;;;;;;;1.03;0.70;;;22.70;99.90;;;;;;5043716;28;20433;-77
2023/05/27 09:11:27;;;;;;;4.93;1.00;;;22.70;99.90;;;;;;5046814;28;20429;-77
2023/05/27 09:13:55;;;;;;;1.95;0.73;;;22.80;99.90;;;;;;5039976;28;20427;-77
2023/05/27 09:16:23;;;;;;;2.72;1.13;;;22.70;99.90;;;;;;5042381;28;20447;-77
2023/05/27 09:18:50;;;;;;;2.77;1.00;;;22.90;99.90;;;;;;5041836;28;20859;-77
2023/05/27 09:21:18;;;;;;;1.70;0.80;;;22.90;99.90;;;;;;5047134;28;20552;-77
2023/05/27 09:23:45;;;;;;;2.70;0.93;;;23.10;99.90;;;;;;5043269;28;20500;-76
2023/05/27 09:26:13;;;;;;;3.00;1.55;;;23.50;99.90;;;;;;5042917;28;20431;-76
2023/05/27 09:28:40;;;;;;;0.80;0.80;;;23.50;99.90;;;;;;5042317;28;20460;-77
2023/05/27 09:31:09;;;;;;;0.90;0.90;;;23.20;99.90;;;;;;5041139;28;20433;-77
2023/05/27 09:33:38;;;;;;;1.23;0.80;;;23.80;99.90;;;;;;5042691;28;20431;-77
2023/05/27 09:36:08;;;;;;;4.00;1.20;;;23.50;99.90;;;;;;5044536;28;20432;-77
2023/05/27 09:38:36;;;;;;;3.20;0.90;;;23.60;99.90;;;;;;5044468;28;20431;-77
2023/05/27 09:41:03;;;;;;;1.27;0.80;;;23.90;99.90;;;;;;5048726;28;20510;-78
2023/05/27 09:43:31;;;;;;;0.80;0.60;;;24.40;99.90;;;;;;5042745;28;20433;-77
2023/05/27 09:46:03;;;;;;;2.67;1.02;;;24.40;99.90;;;;;;5041026;28;20489;-78
2023/05/27 09:48:31;;;;;;;0.70;0.60;;;24.30;99.90;;;;;;5044977;28;20428;-77
2023/05/27 09:51:02;;;;;;;1.85;0.80;;;24.00;99.90;;;;;;5044624;28;20440;-76
2023/05/27 09:53:36;;;;;;;0.80;0.80;;;23.50;99.90;;;;;;5056960;28;20432;-76
2023/05/27 09:56:04;;;;;;;1.98;1.10;;;22.90;99.90;;;;;;5050378;28;20431;-76
2023/05/27 09:58:33;;;;;;;2.33;0.80;;;23.50;99.90;;;;;;5043678;28;20429;-76
2023/05/27 10:01:06;;;;;;;1.00;0.77;;;23.80;99.90;;;;;;5050268;28;20772;-76
2023/05/27 10:03:37;;;;;;;1.23;0.82;;;23.80;99.90;;;;;;5050567;28;20927;-76
2023/05/27 10:06:05;;;;;;;2.53;1.23;;;23.90;99.90;;;;;;5047257;28;20436;-76
2023/05/27 10:08:35;;;;;;;2.00;0.90;;;24.30;99.90;;;;;;5045214;28;20444;-76
2023/05/27 10:11:02;;;;;;;5.27;0.60;;;24.60;99.90;;;;;;5043560;28;20431;-77
2023/05/27 10:13:30;;;;;;;1.98;1.00;;;24.80;99.90;;;;;;5044544;28;20465;-77
2023/05/27 10:15:56;;;;;;;1.90;0.65;;;25.20;99.90;;;;;;5044761;28;21019;-76
2023/05/27 10:18:29;;;;;;;2.55;1.20;;;24.70;99.90;;;;;;5046176;28;20437;-76
2023/05/27 10:20:58;;;;;;;2.28;0.75;;;24.70;99.90;;;;;;5045970;28;20534;-76
2023/05/27 10:23:29;;;;;;;1.60;1.00;;;24.20;99.90;;;;;;5051460;28;20928;-77
2023/05/27 10:26:00;;;;;;;3.83;1.63;;;24.30;99.90;;;;;;5044093;28;20554;-77
2023/05/27 10:28:33;;;;;;;0.80;0.80;;;24.40;99.90;;;;;;5044075;28;20437;-77
2023/05/27 10:31:11;;;;;;;3.85;0.93;;;24.60;99.90;;;;;;5046603;28;20870;-76
2023/05/27 10:33:42;;;;;;;0.77;0.77;;;24.70;99.90;;;;;;5044267;28;20824;-77
2023/05/27 10:36:09;;;;;;;0.50;0.50;;;25.00;99.90;;;;;;5047290;28;21564;-78
2023/05/27 10:38:41;;;;;;;0.82;0.68;;;25.20;99.90;;;;;;5053172;28;21026;-76
2023/05/27 10:41:08;;;;;;;3.88;1.15;;;25.50;99.90;;;;;;5045416;28;20431;-77
2023/05/27 10:43:35;;;;;;;1.10;1.08;;;25.80;99.90;;;;;;5048459;28;20441;-78
2023/05/27 10:46:17;;;;;;;5.90;1.10;;;26.00;99.90;;;;;;5043910;28;21747;-78
2023/05/27 10:48:44;;;;;;;2.20;0.70;;;25.60;99.90;;;;;;5048842;28;20432;-77
2023/05/27 10:51:10;;;;;;;5.80;1.50;;;25.40;99.90;;;;;;5043647;28;20429;-77
2023/05/27 10:53:39;;;;;;;1.40;1.03;;;25.40;99.90;;;;;;5044845;28;20526;-77
2023/05/27 10:56:06;;;;;;;0.95;0.70;;;24.90;99.90;;;;;;5046080;28;21172;-77
2023/05/27 10:58:37;;;;;;;1.30;0.90;;;24.90;99.90;;;;;;5044885;28;20432;-76
2023/05/27 11:01:11;;;;;;;2.80;0.80;;;24.90;99.90;;;;;;5049999;28;20443;-77
2023/05/27 11:03:44;;;;;;;0.88;0.85;;;25.30;99.90;;;;;;5048382;28;20522;-77
2023/05/27 11:06:12;;;;;;;0.80;0.80;;;25.70;99.90;;;;;;5044715;28;20446;-77
2023/05/27 11:08:39;;;;;;;2.80;0.85;;;26.20;99.90;;;;;;5047815;28;20527;-77
2023/05/27 11:11:07;;;;;;;0.70;0.70;;;25.80;99.90;;;;;;5049177;28;20419;-77
2023/05/27 11:13:44;;;;;;;0.75;0.75;;;26.10;99.90;;;;;;5053767;28;20562;-77
2023/05/27 11:16:15;;;;;;;0.93;0.85;;;26.20;99.90;;;;;;5054168;28;20489;-79
2023/05/27 11:18:47;;;;;;;0.55;0.55;;;25.60;99.90;;;;;;5053311;28;20439;-78
2023/05/27 11:21:17;;;;;;;1.23;0.80;;;25.40;99.90;;;;;;5050773;28;20871;-78
2023/05/27 11:23:48;;;;;;;1.30;0.90;;;25.40;99.90;;;;;;5054526;28;20536;-78
2023/05/27 11:26:23;;;;;;;0.73;0.53;;;25.60;99.90;;;;;;5055599;28;20858;-77
2023/05/27 11:28:57;;;;;;;3.92;1.08;;;25.40;99.90;;;;;;5051552;28;20431;-77
2023/05/27 11:31:28;;;;;;;1.10;1.03;;;25.20;99.90;;;;;;5047799;28;20463;-77
2023/05/27 11:33:55;;;;;;;0.93;0.80;;;25.10;99.90;;;;;;5048193;28;20516;-77
2023/05/27 11:36:25;;;;;;;1.05;0.95;;;25.00;99.90;;;;;;5055097;28;20442;-77
2023/05/27 11:39:16;;;;;;;1.48;0.77;;;24.80;99.90;;;;;;5047582;28;20510;-78
2023/05/27 11:41:52;;;;;;;2.63;1.00;;;24.60;99.90;;;;;;5049090;28;20435;-78
2023/05/27 11:44:24;;;;;;;0.57;0.57;;;24.20;99.90;;;;;;5045568;28;20908;-77
2023/05/27 11:47:01;;;;;;;1.73;0.75;;;24.90;99.90;;;;;;5044436;28;20431;-77
2023/05/27 11:49:30;;;;;;;2.00;0.73;;;25.10;99.90;;;;;;5042966;28;20441;-77
2023/05/27 11:51:59;;;;;;;3.30;0.90;;;25.20;99.90;;;;;;5044078;28;20426;-78
2023/05/27 11:54:30;;;;;;;1.95;1.45;;;25.30;99.90;;;;;;5041003;28;20426;-76
2023/05/27 11:57:03;;;;;;;2.38;1.42;;;25.30;99.90;;;;;;5045440;28;20437;-77
2023/05/27 11:59:30;;;;;;;0.68;0.68;;;25.30;99.90;;;;;;5043749;28;20488;-78
2023/05/27 12:01:56;;;;;;;1.30;0.93;;;25.30;99.90;;;;;;5042603;28;20483;-77
2023/05/27 12:04:23;;;;;;;2.05;0.80;;;25.20;99.90;;;;;;5047998;28;20456;-76
2023/05/27 12:06:56;;;;;;;3.67;0.77;;;25.00;99.90;;;;;;5049067;28;21086;-77
2023/05/27 12:09:24;;;;;;;1.50;0.90;;;25.70;99.90;;;;;;5046364;28;20439;-77
2023/05/27 12:11:52;;;;;;;1.67;0.90;;;25.80;99.90;;;;;;5042750;28;20421;-77
2023/05/27 12:14:20;;;;;;;0.90;0.80;;;25.60;99.90;;;;;;5044234;28;20849;-77
2023/05/27 12:16:46;;;;;;;0.65;0.65;;;25.60;99.90;;;;;;5045270;28;20532;-76
2023/05/27 12:19:13;;;;;;;1.30;1.20;;;25.60;99.90;;;;;;5040732;28;20433;-77
2023/05/27 12:21:40;;;;;;;2.17;1.20;;;25.60;99.90;;;;;;5042746;28;20479;-77
2023/05/27 12:24:07;;;;;;;4.68;1.10;;;25.50;99.90;;;;;;5043299;28;20849;-76
2023/05/27 12:26:33;;;;;;;0.52;0.52;;;25.80;99.90;;;;;;5040828;28;20485;-77
2023/05/27 12:29:00;;;;;;;4.27;1.10;;;25.70;99.90;;;;;;5045165;28;20431;-78
2023/05/27 12:31:27;;;;;;;0.65;0.60;;;26.00;99.90;;;;;;5047844;28;20520;-76
2023/05/27 12:33:54;;;;;;;3.03;0.50;;;26.30;99.90;;;;;;5045005;28;20464;-77
2023/05/27 12:36:21;;;;;;;1.20;0.90;;;26.40;99.90;;;;;;5046881;28;20721;-77
2023/05/27 12:38:52;;;;;;;1.35;1.00;;;26.70;99.90;;;;;;5062375;28;20434;-77
2023/05/27 12:41:21;;;;;;;0.60;0.60;;;26.90;99.90;;;;;;5044516;28;20563;-77
2023/05/27 12:43:48;;;;;;;1.90;0.80;;;26.70;99.90;;;;;;5046052;28;20485;-77
2023/05/27 12:46:16;;;;;;;1.27;1.10;;;26.20;99.90;;;;;;5043198;28;20445;-77
2023/05/27 12:48:44;;;;;;;1.70;1.00;;;26.30;99.90;;;;;;5045135;28;20912;-77
2023/05/27 12:51:14;;;;;;;1.83;1.15;;;26.00;99.90;;;;;;5048203;28;20548;-78
2023/05/27 12:53:42;;;;;;;1.17;0.80;;;25.70;99.90;;;;;;5044926;28;20441;-77
2023/05/27 12:56:10;;;;;;;0.80;0.75;;;26.00;99.90;;;;;;5042780;28;20896;-77
2023/05/27 12:58:39;;;;;;;1.95;1.00;;;26.00;99.90;;;;;;5044801;28;20435;-77